Time;durP1;ratioP1;P1;durP2;ratioP2;P2;SDS_P1;SDS_P2;PMS_P1;PMS_P2;Temp;Humidity;BMP_temperature;BMP_pressure;BME280_temperature;BME280_humidity;BME280_pressure;Samples;Min_cycle;Max_cycle;Signal;HPM_P1;HPM_P2
2024/01/19 00:00:15;;;;;;;2.22;1.10;;;;;;;;;;5014597;28;20036;-23
2024/01/19 00:02:41;;;;;;;3.58;1.20;;;;;;;;;;5014344;28;20052;-26
2024/01/19 00:05:08;;;;;;;1.33;0.90;;;;;;;;;;5014537;28;20096;-24
2024/01/19 00:07:34;;;;;;;1.95;0.82;;;;;;;;;;5017250;28;20057;-24
2024/01/19 00:10:00;;;;;;;2.38;1.20;;;;;;;;;;5017929;28;20346;-23
2024/01/19 00:12:26;;;;;;;1.33;1.00;;;;;;;;;;5018015;28;20026;-24
2024/01/19 00:14:52;;;;;;;1.85;1.05;;;;;;;;;;5017683;28;20022;-23
2024/01/19 00:17:18;;;;;;;1.15;1.05;;;;;;;;;;5018130;28;20087;-23
2024/01/19 00:19:44;;;;;;;1.05;0.90;;;;;;;;;;5017838;28;20326;-24
2024/01/19 00:22:10;;;;;;;4.95;1.40;;;;;;;;;;5017711;28;20042;-24
2024/01/19 00:24:36;;;;;;;4.22;1.42;;;;;;;;;;5017480;28;20080;-24
2024/01/19 00:27:03;;;;;;;1.75;1.15;;;;;;;;;;5017425;28;20033;-24
2024/01/19 00:29:30;;;;;;;2.63;1.15;;;;;;;;;;5017331;28;20022;-25
2024/01/19 00:31:56;;;;;;;2.05;1.08;;;;;;;;;;5017528;28;20018;-24
2024/01/19 00:34:22;;;;;;;3.15;1.73;;;;;;;;;;5017564;28;20034;-23
2024/01/19 00:36:48;;;;;;;5.32;1.40;;;;;;;;;;5017235;28;20064;-24
2024/01/19 00:39:14;;;;;;;3.75;1.40;;;;;;;;;;5017200;28;20374;-23
2024/01/19 00:41:41;;;;;;;4.45;1.73;;;;;;;;;;5017213;28;20026;-24
2024/01/19 00:44:07;;;;;;;4.30;1.73;;;;;;;;;;5017072;28;20373;-23
2024/01/19 00:46:33;;;;;;;1.40;1.30;;;;;;;;;;5017070;28;20037;-25
2024/01/19 00:48:59;;;;;;;1.33;1.17;;;;;;;;;;5017247;28;20041;-25
2024/01/19 00:51:25;;;;;;;3.95;1.55;;;;;;;;;;5016992;28;20449;-23
2024/01/19 00:53:51;;;;;;;1.83;1.67;;;;;;;;;;5017158;28;20090;-24
2024/01/19 00:56:17;;;;;;;2.83;1.10;;;;;;;;;;5016904;28;20022;-24
2024/01/19 00:58:45;;;;;;;1.70;1.55;;;;;;;;;;5015904;28;20026;-24
2024/01/19 01:01:11;;;;;;;1.40;1.30;;;;;;;;;;5017077;28;20155;-25
2024/01/19 01:03:37;;;;;;;2.05;1.40;;;;;;;;;;5016576;28;20053;-25
2024/01/19 01:06:04;;;;;;;2.40;1.50;;;;;;;;;;5016658;28;20033;-25
2024/01/19 01:08:31;;;;;;;3.03;1.85;;;;;;;;;;5016854;28;20044;-25
2024/01/19 01:10:57;;;;;;;1.42;1.33;;;;;;;;;;5016620;28;20026;-23
2024/01/19 01:13:23;;;;;;;2.03;1.35;;;;;;;;;;5016753;28;20018;-23
2024/01/19 01:15:49;;;;;;;2.30;1.50;;;;;;;;;;5016527;28;20457;-25
2024/01/19 01:18:16;;;;;;;2.28;1.30;;;;;;;;;;5015385;28;20033;-24
2024/01/19 01:20:43;;;;;;;2.20;1.80;;;;;;;;;;5016672;28;20045;-23
2024/01/19 01:23:09;;;;;;;5.88;1.70;;;;;;;;;;5016329;28;20068;-25
2024/01/19 01:25:35;;;;;;;2.38;1.60;;;;;;;;;;5016878;28;20049;-25
2024/01/19 01:28:02;;;;;;;3.08;1.58;;;;;;;;;;5016459;28;20068;-24
2024/01/19 01:30:28;;;;;;;3.83;2.28;;;;;;;;;;5016219;28;20083;-25
2024/01/19 01:32:54;;;;;;;3.13;1.60;;;;;;;;;;5016641;28;20037;-26
2024/01/19 01:35:20;;;;;;;2.33;1.92;;;;;;;;;;5016430;28;20022;-24
2024/01/19 01:37:47;;;;;;;2.60;1.65;;;;;;;;;;5016138;28;20030;-25
2024/01/19 01:40:13;;;;;;;3.97;1.80;;;;;;;;;;5016291;28;20029;-24
2024/01/19 01:42:39;;;;;;;2.75;1.95;;;;;;;;;;5015974;28;20041;-25
2024/01/19 01:45:05;;;;;;;2.00;1.20;;;;;;;;;;5015962;28;20045;-26
2024/01/19 01:47:32;;;;;;;2.95;2.22;;;;;;;;;;5016209;28;20041;-26
2024/01/19 01:49:58;;;;;;;2.00;1.30;;;;;;;;;;5016061;28;20026;-25
2024/01/19 01:52:25;;;;;;;2.65;1.58;;;;;;;;;;5015748;28;20029;-24
2024/01/19 01:54:54;;;;;;;1.55;1.17;;;;;;;;;;5015833;28;20060;-24
2024/01/19 01:57:21;;;;;;;2.70;1.50;;;;;;;;;;5016031;28;20517;-25
2024/01/19 01:59:48;;;;;;;1.90;1.48;;;;;;;;;;5015745;28;20129;-25
2024/01/19 02:02:14;;;;;;;2.88;1.48;;;;;;;;;;5015593;28;20026;-27
2024/01/19 02:04:41;;;;;;;2.90;1.52;;;;;;;;;;5015939;28;20053;-27
2024/01/19 02:07:08;;;;;;;4.47;1.80;;;;;;;;;;5015589;28;20064;-24
2024/01/19 02:09:34;;;;;;;2.63;1.80;;;;;;;;;;5015701;28;20054;-24
2024/01/19 02:12:00;;;;;;;2.58;1.73;;;;;;;;;;5015385;28;20036;-26
2024/01/19 02:14:26;;;;;;;1.67;1.50;;;;;;;;;;5015511;28;20021;-23
2024/01/19 02:16:53;;;;;;;2.50;1.85;;;;;;;;;;5015414;28;20022;-23
2024/01/19 02:19:19;;;;;;;3.22;2.85;;;;;;;;;;5015681;28;20034;-24
2024/01/19 02:21:45;;;;;;;1.88;1.45;;;;;;;;;;5015256;28;20033;-23
2024/01/19 02:24:20;;;;;;;1.85;1.52;;;;;;;;;;5015275;28;20114;-24
2024/01/19 02:26:46;;;;;;;2.30;1.50;;;;;;;;;;5015287;28;20037;-24
2024/01/19 02:29:13;;;;;;;2.75;1.20;;;;;;;;;;5015107;28;20033;-24
2024/01/19 02:31:40;;;;;;;1.80;1.38;;;;;;;;;;5015471;28;20022;-24
2024/01/19 02:34:06;;;;;;;3.63;1.60;;;;;;;;;;5015100;28;20411;-26
2024/01/19 02:36:32;;;;;;;1.73;1.35;;;;;;;;;;5015426;28;20092;-26
2024/01/19 02:38:58;;;;;;;2.28;1.50;;;;;;;;;;5015114;28;20072;-25
2024/01/19 02:41:24;;;;;;;1.45;1.35;;;;;;;;;;5015072;28;20109;-24
2024/01/19 02:43:50;;;;;;;2.28;1.58;;;;;;;;;;5015020;28;20204;-26
2024/01/19 02:46:18;;;;;;;3.25;1.55;;;;;;;;;;5015513;28;20022;-24
2024/01/19 02:48:45;;;;;;;2.55;1.50;;;;;;;;;;5015445;28;20412;-25
2024/01/19 02:51:11;;;;;;;1.83;1.70;;;;;;;;;;5014929;28;20041;-24
2024/01/19 02:53:37;;;;;;;1.92;1.80;;;;;;;;;;5015364;28;20507;-23
2024/01/19 02:56:04;;;;;;;3.65;1.83;;;;;;;;;;5014874;28;20428;-23
2024/01/19 02:58:31;;;;;;;3.03;1.80;;;;;;;;;;5015138;28;20104;-23
2024/01/19 03:00:57;;;;;;;2.13;1.63;;;;;;;;;;5014802;28;20030;-23
2024/01/19 03:03:23;;;;;;;2.25;1.45;;;;;;;;;;5014698;28;20053;-24
2024/01/19 03:05:50;;;;;;;1.98;1.77;;;;;;;;;;5015082;28;20549;-25
2024/01/19 03:08:16;;;;;;;2.20;1.92;;;;;;;;;;5014950;28;20330;-25
2024/01/19 03:10:42;;;;;;;3.13;1.67;;;;;;;;;;5015021;28;20026;-24
2024/01/19 03:13:08;;;;;;;2.15;1.88;;;;;;;;;;5014699;28;20030;-27
2024/01/19 03:15:34;;;;;;;3.83;1.70;;;;;;;;;;5014987;28;20018;-24
2024/01/19 03:18:01;;;;;;;3.40;1.73;;;;;;;;;;5014965;28;20025;-23
2024/01/19 03:20:27;;;;;;;3.05;1.80;;;;;;;;;;5014943;28;20033;-24
2024/01/19 03:22:53;;;;;;;2.92;2.72;;;;;;;;;;5014610;28;20018;-24
2024/01/19 03:25:19;;;;;;;2.13;1.60;;;;;;;;;;5014647;28;20376;-24
2024/01/19 03:27:45;;;;;;;2.67;1.70;;;;;;;;;;5014630;28;20041;-24
2024/01/19 03:30:11;;;;;;;6.43;1.73;;;;;;;;;;5014773;28;20021;-26
2024/01/19 03:32:38;;;;;;;2.70;2.10;;;;;;;;;;5014656;28;20022;-25
2024/01/19 03:35:04;;;;;;;1.80;1.60;;;;;;;;;;5014791;28;20023;-23
2024/01/19 03:37:30;;;;;;;2.42;1.88;;;;;;;;;;5014552;28;20033;-25
2024/01/19 03:39:56;;;;;;;3.17;2.08;;;;;;;;;;5014739;28;20030;-24
2024/01/19 03:42:22;;;;;;;2.30;2.10;;;;;;;;;;5017868;28;20401;-24
2024/01/19 03:44:48;;;;;;;2.63;1.90;;;;;;;;;;5018498;28;20030;-26
2024/01/19 03:47:15;;;;;;;2.00;1.80;;;;;;;;;;5018481;28;20352;-23
2024/01/19 03:49:41;;;;;;;1.83;1.67;;;;;;;;;;5018323;28;20037;-24
2024/01/19 03:52:08;;;;;;;2.80;2.05;;;;;;;;;;5018032;28;20041;-23
2024/01/19 03:54:35;;;;;;;1.67;1.58;;;;;;;;;;5018130;28;20447;-24
2024/01/19 03:57:03;;;;;;;1.90;1.60;;;;;;;;;;5018295;28;20469;-24
2024/01/19 03:59:29;;;;;;;2.45;2.08;;;;;;;;;;5017963;28;20469;-24
2024/01/19 04:01:56;;;;;;;1.95;1.80;;;;;;;;;;5017828;28;20453;-25
2024/01/19 04:04:23;;;;;;;2.90;1.90;;;;;;;;;;5017700;28;20057;-24
2024/01/19 04:06:49;;;;;;;2.72;2.20;;;;;;;;;;5018376;28;20026;-24
2024/01/19 04:09:18;;;;;;;2.50;2.13;;;;;;;;;;5017976;28;20412;-24
2024/01/19 04:11:44;;;;;;;3.60;2.20;;;;;;;;;;5017683;28;20112;-25
2024/01/19 04:14:11;;;;;;;3.15;2.45;;;;;;;;;;5018472;28;20033;-26
2024/01/19 04:16:37;;;;;;;2.50;2.30;;;;;;;;;;5017680;28;20022;-23
2024/01/19 04:19:04;;;;;;;2.33;2.13;;;;;;;;;;5018584;28;20090;-24
2024/01/19 04:21:30;;;;;;;5.05;2.38;;;;;;;;;;5017605;28;20508;-24
2024/01/19 04:23:56;;;;;;;3.15;2.50;;;;;;;;;;5017638;28;20437;-24
2024/01/19 04:26:23;;;;;;;3.33;1.85;;;;;;;;;;5017507;28;20034;-23
2024/01/19 04:28:49;;;;;;;3.70;2.42;;;;;;;;;;5017627;28;20084;-26
2024/01/19 04:31:15;;;;;;;2.28;1.90;;;;;;;;;;5017669;28;20022;-23
2024/01/19 04:33:41;;;;;;;2.80;2.45;;;;;;;;;;5017304;28;20033;-25
2024/01/19 04:36:07;;;;;;;3.33;2.70;;;;;;;;;;5017569;28;20341;-24
2024/01/19 04:38:34;;;;;;;2.30;2.10;;;;;;;;;;5017273;28;20152;-24
2024/01/19 04:41:00;;;;;;;2.97;2.30;;;;;;;;;;5017244;28;20030;-23
2024/01/19 04:43:26;;;;;;;3.05;2.70;;;;;;;;;;5017122;28;20022;-25
2024/01/19 04:45:52;;;;;;;2.70;2.20;;;;;;;;;;5017136;28;20513;-25
2024/01/19 04:48:18;;;;;;;2.00;1.80;;;;;;;;;;5016950;28;20038;-24
2024/01/19 04:50:44;;;;;;;4.50;2.30;;;;;;;;;;5016952;28;20044;-25
2024/01/19 04:53:10;;;;;;;2.45;2.10;;;;;;;;;;5016910;28;20030;-24
2024/01/19 04:55:37;;;;;;;2.88;2.33;;;;;;;;;;5016918;28;20100;-24
2024/01/19 04:58:03;;;;;;;2.78;2.10;;;;;;;;;;5016844;28;20036;-24
2024/01/19 05:00:29;;;;;;;2.13;1.92;;;;;;;;;;5017027;28;20100;-24
2024/01/19 05:02:55;;;;;;;2.83;2.28;;;;;;;;;;5016527;28;20053;-27
2024/01/19 05:05:21;;;;;;;2.63;2.40;;;;;;;;;;5017302;28;20022;-23
2024/01/19 05:07:47;;;;;;;3.38;3.05;;;;;;;;;;5016660;28;20038;-24
2024/01/19 05:10:14;;;;;;;3.55;2.92;;;;;;;;;;5016740;28;20026;-25
2024/01/19 05:12:40;;;;;;;2.85;2.55;;;;;;;;;;5016528;28;20022;-23
2024/01/19 05:15:06;;;;;;;2.92;1.88;;;;;;;;;;5016590;28;20122;-24
2024/01/19 05:17:32;;;;;;;2.28;2.08;;;;;;;;;;5016166;28;20408;-24
2024/01/19 05:19:58;;;;;;;3.05;2.25;;;;;;;;;;5016213;28;20026;-26
2024/01/19 05:22:24;;;;;;;2.78;1.63;;;;;;;;;;5016190;28;20054;-25
2024/01/19 05:24:51;;;;;;;2.13;1.67;;;;;;;;;;5016201;28;20449;-23
2024/01/19 05:27:17;;;;;;;2.90;2.10;;;;;;;;;;5016231;28;20052;-24
2024/01/19 05:29:44;;;;;;;12.30;2.50;;;;;;;;;;5015900;28;20028;-24
2024/01/19 05:32:14;;;;;;;2.70;2.47;;;;;;;;;;5015949;28;20384;-24
2024/01/19 05:34:40;;;;;;;3.42;2.58;;;;;;;;;;5015948;28;20032;-23
2024/01/19 05:37:06;;;;;;;3.10;1.80;;;;;;;;;;5016138;28;20048;-27
2024/01/19 05:39:32;;;;;;;2.88;1.80;;;;;;;;;;5015777;28;20049;-24
2024/01/19 05:41:58;;;;;;;1.77;1.67;;;;;;;;;;5016057;28;20026;-23
2024/01/19 05:44:25;;;;;;;1.70;1.60;;;;;;;;;;5015885;28;20026;-26
2024/01/19 05:46:51;;;;;;;3.85;1.90;;;;;;;;;;5015830;28;20026;-27
2024/01/19 05:49:17;;;;;;;4.63;2.40;;;;;;;;;;5015678;28;20034;-26
2024/01/19 05:51:43;;;;;;;3.22;2.22;;;;;;;;;;5016142;28;20037;-24
2024/01/19 05:54:10;;;;;;;4.00;2.10;;;;;;;;;;5015514;28;20018;-24
2024/01/19 05:56:36;;;;;;;4.13;2.15;;;;;;;;;;5016161;28;20097;-24
2024/01/19 05:59:02;;;;;;;2.67;1.83;;;;;;;;;;5015855;28;20030;-22
2024/01/19 06:01:28;;;;;;;2.35;2.15;;;;;;;;;;5015605;28;20103;-26
2024/01/19 06:03:54;;;;;;;3.42;2.17;;;;;;;;;;5014873;28;20045;-26
2024/01/19 06:06:20;;;;;;;2.55;2.25;;;;;;;;;;5015836;28;20026;-26
2024/01/19 06:08:46;;;;;;;4.13;2.25;;;;;;;;;;5015660;28;20034;-23
2024/01/19 06:11:12;;;;;;;2.53;2.33;;;;;;;;;;5015463;28;20041;-24
2024/01/19 06:13:41;;;;;;;2.53;2.33;;;;;;;;;;5015407;28;20025;-23
2024/01/19 06:16:08;;;;;;;4.05;2.55;;;;;;;;;;5015459;28;20026;-23
2024/01/19 06:18:34;;;;;;;6.35;2.40;;;;;;;;;;5015417;28;20087;-24
2024/01/19 06:21:00;;;;;;;3.45;2.10;;;;;;;;;;5015060;28;20018;-23
2024/01/19 06:23:27;;;;;;;5.35;2.75;;;;;;;;;;5014998;28;20111;-23
2024/01/19 06:25:53;;;;;;;4.72;1.85;;;;;;;;;;5015410;28;20034;-24
2024/01/19 06:28:19;;;;;;;2.63;2.22;;;;;;;;;;5015374;28;20339;-23
2024/01/19 06:30:45;;;;;;;2.05;1.90;;;;;;;;;;5015177;28;20060;-24
2024/01/19 06:33:12;;;;;;;3.97;2.35;;;;;;;;;;5015052;28;20029;-25
2024/01/19 06:35:38;;;;;;;5.88;2.85;;;;;;;;;;5015041;28;20404;-24
2024/01/19 06:38:04;;;;;;;2.92;2.33;;;;;;;;;;5015637;28;20080;-24
2024/01/19 06:40:31;;;;;;;1.98;1.77;;;;;;;;;;5014938;28;20022;-25
2024/01/19 06:42:57;;;;;;;3.78;2.70;;;;;;;;;;5014836;28;20507;-25
2024/01/19 06:45:23;;;;;;;6.07;1.88;;;;;;;;;;5015407;28;20506;-23
2024/01/19 06:47:49;;;;;;;2.47;2.00;;;;;;;;;;5015316;28;20018;-22
2024/01/19 06:50:16;;;;;;;5.25;2.70;;;;;;;;;;5014773;28;20121;-24
2024/01/19 06:52:42;;;;;;;7.75;3.53;;;;;;;;;;5014622;28;20425;-23
2024/01/19 06:55:08;;;;;;;5.30;3.05;;;;;;;;;;5014787;28;20022;-24
2024/01/19 06:57:34;;;;;;;6.82;3.20;;;;;;;;;;5014663;28;20080;-24
2024/01/19 07:00:00;;;;;;;8.40;3.42;;;;;;;;;;5014734;28;20026;-25
2024/01/19 07:02:27;;;;;;;4.45;3.90;;;;;;;;;;5014627;28;20143;-25
2024/01/19 07:04:53;;;;;;;7.13;2.67;;;;;;;;;;5015129;28;20026;-24
2024/01/19 07:07:19;;;;;;;3.83;2.13;;;;;;;;;;5014872;28;20368;-24
2024/01/19 07:09:45;;;;;;;2.97;1.90;;;;;;;;;;5014936;28;20033;-23
2024/01/19 07:12:14;;;;;;;5.05;2.50;;;;;;;;;;5014616;28;20037;-25
2024/01/19 07:14:41;;;;;;;6.63;2.88;;;;;;;;;;5014470;28;20017;-25
2024/01/19 07:17:07;;;;;;;3.13;2.90;;;;;;;;;;5016765;28;20022;-22
2024/01/19 07:19:33;;;;;;;7.85;3.45;;;;;;;;;;5018632;28;20096;-23
2024/01/19 07:21:59;;;;;;;7.00;3.30;;;;;;;;;;5018238;28;20026;-23
2024/01/19 07:24:26;;;;;;;3.33;3.03;;;;;;;;;;5018571;28;20029;-23
2024/01/19 07:26:52;;;;;;;6.40;3.03;;;;;;;;;;5018263;28;20088;-23
2024/01/19 07:29:18;;;;;;;4.85;3.53;;;;;;;;;;5018157;28;20030;-26
2024/01/19 07:31:44;;;;;;;12.57;3.30;;;;;;;;;;5018110;28;20018;-26
2024/01/19 07:34:11;;;;;;;6.43;4.10;;;;;;;;;;5018322;28;20053;-23
2024/01/19 07:36:37;;;;;;;3.38;3.08;;;;;;;;;;5018666;28;20460;-24
2024/01/19 07:39:03;;;;;;;7.13;3.35;;;;;;;;;;5018287;28;20029;-23
2024/01/19 07:41:29;;;;;;;3.88;3.55;;;;;;;;;;5018726;28;20041;-24
2024/01/19 07:43:55;;;;;;;5.60;3.40;;;;;;;;;;5017819;28;20030;-24
2024/01/19 07:46:22;;;;;;;5.05;3.50;;;;;;;;;;5017969;28;20033;-23
2024/01/19 07:48:48;;;;;;;5.35;3.63;;;;;;;;;;5017754;28;20026;-25
2024/01/19 07:51:14;;;;;;;4.57;3.63;;;;;;;;;;5017879;28;20100;-24
2024/01/19 07:53:40;;;;;;;5.15;3.08;;;;;;;;;;5018160;28;20030;-25
2024/01/19 07:56:06;;;;;;;3.78;3.20;;;;;;;;;;5017796;28;20018;-25
2024/01/19 07:58:33;;;;;;;6.15;3.75;;;;;;;;;;5017832;28;20030;-24
2024/01/19 08:00:59;;;;;;;5.18;3.17;;;;;;;;;;5017628;28;20057;-23
2024/01/19 08:03:25;;;;;;;4.30;3.75;;;;;;;;;;5017569;28;20042;-23
2024/01/19 08:05:51;;;;;;;4.90;2.67;;;;;;;;;;5018334;28;20438;-23
2024/01/19 08:08:17;;;;;;;3.75;2.80;;;;;;;;;;5017491;28;20087;-25
2024/01/19 08:10:43;;;;;;;3.33;2.95;;;;;;;;;;5017834;28;20388;-25
2024/01/19 08:13:10;;;;;;;3.15;2.40;;;;;;;;;;5017689;28;20437;-25
2024/01/19 08:15:36;;;;;;;2.38;2.15;;;;;;;;;;5017559;28;20066;-24
2024/01/19 08:18:02;;;;;;;3.80;2.47;;;;;;;;;;5017479;28;20026;-24
2024/01/19 08:20:28;;;;;;;3.70;2.28;;;;;;;;;;5017340;28;20124;-24
2024/01/19 08:22:55;;;;;;;3.38;2.83;;;;;;;;;;5017158;28;20056;-23
2024/01/19 08:25:21;;;;;;;6.60;2.88;;;;;;;;;;5017205;28;20030;-22
2024/01/19 08:27:48;;;;;;;4.38;2.60;;;;;;;;;;5016703;28;20030;-24
2024/01/19 08:30:15;;;;;;;3.03;2.72;;;;;;;;;;5017419;28;20034;-27
2024/01/19 08:32:41;;;;;;;3.45;2.45;;;;;;;;;;5017478;28;20121;-23
2024/01/19 08:35:11;;;;;;;8.00;3.13;;;;;;;;;;5017183;28;20097;-26
2024/01/19 08:37:37;;;;;;;3.67;2.53;;;;;;;;;;5017402;28;20018;-24
2024/01/19 08:40:07;;;;;;;6.18;3.05;;;;;;;;;;5017061;28;20069;-24
2024/01/19 08:42:33;;;;;;;3.25;2.40;;;;;;;;;;5016935;28;20017;-24
2024/01/19 08:44:59;;;;;;;5.03;2.47;;;;;;;;;;5017808;28;20025;-26
2024/01/19 08:47:26;;;;;;;5.25;2.63;;;;;;;;;;5017210;28;20044;-24
2024/01/19 08:49:52;;;;;;;5.25;2.70;;;;;;;;;;5016916;28;20034;-26
2024/01/19 08:52:18;;;;;;;3.05;2.47;;;;;;;;;;5016907;28;20105;-25
2024/01/19 08:54:45;;;;;;;3.83;2.38;;;;;;;;;;5016848;28;20390;-25
2024/01/19 08:57:11;;;;;;;6.20;2.50;;;;;;;;;;5016671;28;20033;-24
2024/01/19 08:59:37;;;;;;;3.30;2.92;;;;;;;;;;5016566;28;20040;-24
2024/01/19 09:02:03;;;;;;;3.50;2.85;;;;;;;;;;5016632;28;20341;-23
2024/01/19 09:04:30;;;;;;;4.13;3.25;;;;;;;;;;5016942;28;20372;-24
2024/01/19 09:06:57;;;;;;;4.13;2.70;;;;;;;;;;5016761;28;20036;-24
2024/01/19 09:09:23;;;;;;;3.63;3.28;;;;;;;;;;5016349;28;20030;-24
2024/01/19 09:11:49;;;;;;;2.97;2.38;;;;;;;;;;5016506;28;20026;-24
2024/01/19 09:14:16;;;;;;;7.38;2.65;;;;;;;;;;5016891;28;20064;-23
2024/01/19 09:16:45;;;;;;;4.82;2.42;;;;;;;;;;5016476;28;20475;-25
2024/01/19 09:19:11;;;;;;;4.82;2.92;;;;;;;;;;5016278;28;20088;-23
2024/01/19 09:21:39;;;;;;;5.25;2.45;;;;;;;;;;5016156;28;20057;-23
2024/01/19 09:24:06;;;;;;;3.72;2.33;;;;;;;;;;5016381;28;20357;-25
2024/01/19 09:26:33;;;;;;;2.85;2.53;;;;;;;;;;5016234;28;20034;-24
2024/01/19 09:28:59;;;;;;;3.47;2.60;;;;;;;;;;5016306;28;20034;-24
2024/01/19 09:31:25;;;;;;;5.10;2.33;;;;;;;;;;5017259;28;20113;-24
2024/01/19 09:33:52;;;;;;;3.25;2.05;;;;;;;;;;5015953;28;20025;-23
2024/01/19 09:36:18;;;;;;;6.40;2.60;;;;;;;;;;5015858;28;20097;-24
2024/01/19 09:38:44;;;;;;;3.97;2.42;;;;;;;;;;5014875;28;20030;-24
2024/01/19 09:41:28;;;;;;;6.82;2.35;;;;;;;;;;5016482;28;20030;-23
2024/01/19 09:43:55;;;;;;;3.25;2.20;;;;;;;;;;5015698;28;20026;-24
2024/01/19 09:46:30;;;;;;;3.90;2.65;;;;;;;;;;5015921;28;20042;-24
2024/01/19 09:48:56;;;;;;;7.18;3.15;;;;;;;;;;5016146;28;20029;-27
2024/01/19 09:51:23;;;;;;;5.80;2.33;;;;;;;;;;5015834;28;20041;-24
2024/01/19 09:53:54;;;;;;;5.80;2.90;;;;;;;;;;5015963;28;20441;-25
2024/01/19 09:56:20;;;;;;;6.43;2.83;;;;;;;;;;5015803;28;20414;-25
2024/01/19 09:58:50;;;;;;;3.13;2.83;;;;;;;;;;5015596;28;20048;-25
2024/01/19 10:01:16;;;;;;;8.10;2.67;;;;;;;;;;5015133;28;20037;-23
2024/01/19 10:03:42;;;;;;;9.30;3.60;;;;;;;;;;5015199;28;20054;-25
2024/01/19 10:06:11;;;;;;;8.77;3.67;;;;;;;;;;5015338;28;20481;-26
2024/01/19 10:08:38;;;;;;;4.80;3.33;;;;;;;;;;5015184;28;20041;-24
2024/01/19 10:11:06;;;;;;;5.55;3.33;;;;;;;;;;5015249;28;20103;-25
2024/01/19 10:13:32;;;;;;;5.35;2.83;;;;;;;;;;5015128;28;20030;-23
2024/01/19 10:15:58;;;;;;;5.75;3.45;;;;;;;;;;5015119;28;20033;-23
2024/01/19 10:18:25;;;;;;;5.25;2.50;;;;;;;;;;5015646;28;20105;-25
2024/01/19 10:20:51;;;;;;;8.65;3.10;;;;;;;;;;5015345;28;20022;-28
2024/01/19 10:23:24;;;;;;;4.68;3.15;;;;;;;;;;5015238;28;20452;-25
2024/01/19 10:25:51;;;;;;;5.75;2.70;;;;;;;;;;5015587;28;20028;-23
2024/01/19 10:28:36;;;;;;;6.28;3.20;;;;;;;;;;5015402;28;20100;-24
2024/01/19 10:31:15;;;;;;;7.30;2.58;;;;;;;;;;5015233;28;20053;-27
2024/01/19 10:33:48;;;;;;;6.43;3.85;;;;;;;;;;5015105;28;20018;-24
2024/01/19 10:36:14;;;;;;;3.60;2.35;;;;;;;;;;5014871;28;20091;-26
2024/01/19 10:38:41;;;;;;;6.00;2.25;;;;;;;;;;5015001;28;20030;-24
2024/01/19 10:41:14;;;;;;;5.63;3.17;;;;;;;;;;5014899;28;20029;-25
2024/01/19 10:43:40;;;;;;;5.70;2.92;;;;;;;;;;5014831;28;20105;-25
2024/01/19 10:46:26;;;;;;;3.65;1.80;;;;;;;;;;5014728;28;20068;-24
2024/01/19 10:48:52;;;;;;;4.28;2.65;;;;;;;;;;5015407;28;20073;-23
2024/01/19 10:51:19;;;;;;;5.30;2.25;;;;;;;;;;5014532;28;20026;-25
2024/01/19 10:53:48;;;;;;;3.53;2.35;;;;;;;;;;5014938;28;20026;-23
2024/01/19 10:56:21;;;;;;;5.47;2.95;;;;;;;;;;5015043;28;20034;-24
2024/01/19 10:58:47;;;;;;;2.17;1.98;;;;;;;;;;5015051;28;20029;-25
2024/01/19 11:01:14;;;;;;;7.13;2.60;;;;;;;;;;5013761;28;20073;-25
2024/01/19 11:03:42;;;;;;;4.75;2.45;;;;;;;;;;5014574;28;20125;-25
2024/01/19 11:06:08;;;;;;;4.30;3.63;;;;;;;;;;5015087;28;20026;-23
2024/01/19 11:08:34;;;;;;;7.53;2.70;;;;;;;;;;5014600;28;20431;-27
2024/01/19 11:11:01;;;;;;;3.72;2.63;;;;;;;;;;5014967;28;20029;-25
2024/01/19 11:13:28;;;;;;;5.22;3.35;;;;;;;;;;5014601;28;20046;-24
2024/01/19 11:15:56;;;;;;;2.88;2.55;;;;;;;;;;5015112;28;20433;-24
2024/01/19 11:18:23;;;;;;;4.38;3.08;;;;;;;;;;5015144;28;20034;-25
2024/01/19 11:20:52;;;;;;;3.33;2.92;;;;;;;;;;5014813;28;20037;-23
2024/01/19 11:23:18;;;;;;;3.30;2.60;;;;;;;;;;5015110;28;20429;-24
2024/01/19 11:25:44;;;;;;;4.68;2.63;;;;;;;;;;5014401;28;20026;-23
2024/01/19 11:28:16;;;;;;;5.60;2.42;;;;;;;;;;5014350;28;20028;-24
2024/01/19 11:31:02;;;;;;;11.02;4.32;;;;;;;;;;5014503;28;20034;-24
2024/01/19 11:33:32;;;;;;;6.95;3.60;;;;;;;;;;5014198;28;20026;-27
2024/01/19 11:35:58;;;;;;;8.18;2.97;;;;;;;;;;5015014;28;20081;-25
2024/01/19 11:38:43;;;;;;;10.43;3.30;;;;;;;;;;5014146;28;20026;-23
2024/01/19 11:41:10;;;;;;;6.97;2.92;;;;;;;;;;5014570;28;20385;-23
2024/01/19 11:43:40;;;;;;;10.88;2.60;;;;;;;;;;5014162;28;20092;-24
2024/01/19 11:46:07;;;;;;;5.95;2.22;;;;;;;;;;5014241;28;20026;-24
2024/01/19 11:48:43;;;;;;;6.90;2.30;;;;;;;;;;5013151;28;20026;-24
2024/01/19 11:51:31;;;;;;;8.75;2.65;;;;;;;;;;5014562;28;20029;-23
2024/01/19 11:53:58;;;;;;;3.40;2.63;;;;;;;;;;5014214;28;20022;-25
2024/01/19 11:56:25;;;;;;;7.88;2.75;;;;;;;;;;5014416;28;20041;-26
2024/01/19 11:58:53;;;;;;;4.38;2.30;;;;;;;;;;5014138;28;20034;-26
2024/01/19 12:01:20;;;;;;;7.50;2.70;;;;;;;;;;5014397;28;20029;-24
2024/01/19 12:03:50;;;;;;;5.95;2.67;;;;;;;;;;5016206;28;20057;-26
2024/01/19 12:06:17;;;;;;;6.90;2.80;;;;;;;;;;5017734;28;20038;-25
2024/01/19 12:08:43;;;;;;;8.75;2.92;;;;;;;;;;5017824;28;20437;-25
2024/01/19 12:11:09;;;;;;;4.35;2.58;;;;;;;;;;5017631;28;20548;-25
2024/01/19 12:13:36;;;;;;;7.72;2.85;;;;;;;;;;5017769;28;20416;-24
2024/01/19 12:16:04;;;;;;;3.70;2.40;;;;;;;;;;5017523;28;20052;-24
2024/01/19 12:18:30;;;;;;;7.35;2.67;;;;;;;;;;5017428;28;20025;-25
2024/01/19 12:20:57;;;;;;;7.43;2.50;;;;;;;;;;5017921;28;20457;-25
2024/01/19 12:23:24;;;;;;;4.97;3.08;;;;;;;;;;5017505;28;20026;-24
2024/01/19 12:25:57;;;;;;;4.07;2.53;;;;;;;;;;5016497;28;20357;-25
2024/01/19 12:28:24;;;;;;;2.45;2.08;;;;;;;;;;5017315;28;20319;-25
2024/01/19 12:30:52;;;;;;;6.15;2.90;;;;;;;;;;5017514;28;20072;-25
2024/01/19 12:33:25;;;;;;;5.03;2.00;;;;;;;;;;5017101;28;20414;-24
2024/01/19 12:36:01;;;;;;;3.78;2.47;;;;;;;;;;5017119;28;20476;-24
2024/01/19 12:38:27;;;;;;;3.03;2.70;;;;;;;;;;5017066;28;20032;-23
2024/01/19 12:40:54;;;;;;;7.25;4.13;;;;;;;;;;5017468;28;20120;-25
2024/01/19 12:43:20;;;;;;;4.70;3.25;;;;;;;;;;5016990;28;20400;-26
2024/01/19 12:45:46;;;;;;;4.88;3.63;;;;;;;;;;5017100;28;20057;-25
2024/01/19 12:48:12;;;;;;;13.32;4.50;;;;;;;;;;5016757;28;20022;-25
2024/01/19 12:50:38;;;;;;;12.13;3.05;;;;;;;;;;5016775;28;20350;-24
2024/01/19 12:53:04;;;;;;;8.68;3.95;;;;;;;;;;5016823;28;20519;-23
2024/01/19 12:55:31;;;;;;;5.07;3.03;;;;;;;;;;5017052;28;20040;-24
2024/01/19 12:57:58;;;;;;;11.73;3.58;;;;;;;;;;5016788;28;20488;-23
2024/01/19 13:00:27;;;;;;;11.32;3.28;;;;;;;;;;5016777;28;20516;-24
2024/01/19 13:02:55;;;;;;;11.63;4.18;;;;;;;;;;5016620;28;20077;-25
2024/01/19 13:05:31;;;;;;;10.60;3.08;;;;;;;;;;5016868;28;20030;-25
2024/01/19 13:08:01;;;;;;;11.10;3.55;;;;;;;;;;5016571;28;20083;-25
2024/01/19 13:10:28;;;;;;;8.32;3.60;;;;;;;;;;5016583;28;20021;-24
2024/01/19 13:13:29;;;;;;;6.40;3.25;;;;;;;;;;5016234;28;20072;-23
2024/01/19 13:15:55;;;;;;;;;;;;;;;;;;4976080;28;20066;-25
2024/01/19 13:18:23;;;;;;;7.90;3.22;;;;;;;;;;5008367;28;19988;-25
2024/01/19 13:20:49;;;;;;;4.30;2.97;;;;;;;;;;5016582;28;20041;-24
2024/01/19 13:23:15;;;;;;;5.43;2.80;;;;;;;;;;5016441;28;20365;-25
2024/01/19 13:25:52;;;;;;;3.88;2.95;;;;;;;;;;5016537;28;20029;-24
2024/01/19 13:28:18;;;;;;;10.15;2.83;;;;;;;;;;5016145;28;20034;-25
2024/01/19 13:30:47;;;;;;;4.05;3.30;;;;;;;;;;5016190;28;20126;-26
2024/01/19 13:33:13;;;;;;;4.20;3.45;;;;;;;;;;5015823;28;20025;-24
2024/01/19 13:35:39;;;;;;;3.40;2.70;;;;;;;;;;5016175;28;20034;-24
2024/01/19 13:38:06;;;;;;;8.48;3.33;;;;;;;;;;5016326;28;20037;-26
2024/01/19 13:40:32;;;;;;;12.55;3.85;;;;;;;;;;5016268;28;20037;-24
2024/01/19 13:42:58;;;;;;;7.97;3.30;;;;;;;;;;5015956;28;20115;-26
2024/01/19 13:45:25;;;;;;;9.90;3.78;;;;;;;;;;5016041;28;20065;-23
2024/01/19 13:47:51;;;;;;;15.38;3.60;;;;;;;;;;5016227;28;20519;-24
2024/01/19 13:50:17;;;;;;;8.82;3.25;;;;;;;;;;5015806;28;20060;-26
2024/01/19 13:52:43;;;;;;;9.50;4.03;;;;;;;;;;5015726;28;20032;-25
2024/01/19 13:55:09;;;;;;;7.63;3.10;;;;;;;;;;5015749;28;20061;-23
2024/01/19 13:57:36;;;;;;;10.05;3.55;;;;;;;;;;5015719;28;20088;-25
2024/01/19 14:00:02;;;;;;;13.20;3.05;;;;;;;;;;5015921;28;20034;-25
2024/01/19 14:02:30;;;;;;;9.77;2.97;;;;;;;;;;5015567;28;20358;-25
2024/01/19 14:04:57;;;;;;;2.63;2.40;;;;;;;;;;5015628;28;20438;-24
2024/01/19 14:07:24;;;;;;;3.65;3.35;;;;;;;;;;5015490;28;20044;-24
2024/01/19 14:09:51;;;;;;;6.32;2.88;;;;;;;;;;5015771;28;20029;-24
2024/01/19 14:12:18;;;;;;;12.23;4.28;;;;;;;;;;5015662;28;20376;-24
2024/01/19 14:14:45;;;;;;;6.63;4.13;;;;;;;;;;5015411;28;20037;-25
2024/01/19 14:17:13;;;;;;;13.52;3.50;;;;;;;;;;5015414;28;20094;-25
2024/01/19 14:19:39;;;;;;;13.00;3.92;;;;;;;;;;5015290;28;20025;-24
2024/01/19 14:22:06;;;;;;;17.63;4.88;;;;;;;;;;5015277;28;20030;-26
2024/01/19 14:24:32;;;;;;;14.98;4.00;;;;;;;;;;5015532;28;20327;-25
2024/01/19 14:26:59;;;;;;;9.70;4.25;;;;;;;;;;5015100;28;20033;-26
2024/01/19 14:29:25;;;;;;;8.15;3.03;;;;;;;;;;5015139;28;20034;-25
2024/01/19 14:31:52;;;;;;;5.30;2.35;;;;;;;;;;5015613;28;20076;-23
2024/01/19 14:34:18;;;;;;;5.93;3.03;;;;;;;;;;5015426;28;20022;-23
2024/01/19 14:36:46;;;;;;;8.88;3.38;;;;;;;;;;5015384;28;20065;-23
2024/01/19 14:39:13;;;;;;;4.32;3.00;;;;;;;;;;5015021;28;20453;-23
2024/01/19 14:41:39;;;;;;;6.57;3.17;;;;;;;;;;5015264;28;20103;-25